sensor_id;sensor_type;location;lat;lon;timestamp;temperature;humidity
56426;DHT22;42330;43.620;3.856;2022-08-04T00:02:24;26.20;99.60
56426;DHT22;42330;43.620;3.856;2022-08-04T00:05:02;26.20;99.40
56426;DHT22;42330;43.620;3.856;2022-08-04T00:07:48;26.10;99.50
56426;DHT22;42330;43.620;3.856;2022-08-04T00:10:17;26.10;99.00
56426;DHT22;42330;43.620;3.856;2022-08-04T00:12:47;26.20;98.50
56426;DHT22;42330;43.620;3.856;2022-08-04T00:15:15;26.10;98.60
56426;DHT22;42330;43.620;3.856;2022-08-04T00:17:48;26.10;97.90
56426;DHT22;42330;43.620;3.856;2022-08-04T00:20:17;26.10;97.30
56426;DHT22;42330;43.620;3.856;2022-08-04T00:22:45;26.00;97.60
56426;DHT22;42330;43.620;3.856;2022-08-04T00:25:11;25.90;97.70
56426;DHT22;42330;43.620;3.856;2022-08-04T00:27:37;25.90;97.40
56426;DHT22;42330;43.620;3.856;2022-08-04T00:30:04;25.90;97.40
56426;DHT22;42330;43.620;3.856;2022-08-04T00:32:30;25.70;98.30
56426;DHT22;42330;43.620;3.856;2022-08-04T00:34:57;25.60;99.30
56426;DHT22;42330;43.620;3.856;2022-08-04T00:37:24;25.50;99.80
56426;DHT22;42330;43.620;3.856;2022-08-04T00:39:52;25.50;99.90
56426;DHT22;42330;43.620;3.856;2022-08-04T00:45:35;25.50;99.80
56426;DHT22;42330;43.620;3.856;2022-08-04T00:59:02;25.40;99.90
56426;DHT22;42330;43.620;3.856;2022-08-04T01:04:31;25.40;99.90
56426;DHT22;42330;43.620;3.856;2022-08-04T01:08:03;25.40;99.90
56426;DHT22;42330;43.620;3.856;2022-08-04T01:10:16;25.40;99.90
56426;DHT22;42330;43.620;3.856;2022-08-04T01:15:39;25.50;99.90
56426;DHT22;42330;43.620;3.856;2022-08-04T01:18:07;25.50;99.90
56426;DHT22;42330;43.620;3.856;2022-08-04T01:23:58;25.50;99.90
56426;DHT22;42330;43.620;3.856;2022-08-04T01:29:11;25.40;99.90
56426;DHT22;42330;43.620;3.856;2022-08-04T01:32:02;25.30;99.90
56426;DHT22;42330;43.620;3.856;2022-08-04T01:34:33;25.20;99.90
56426;DHT22;42330;43.620;3.856;2022-08-04T01:37:08;25.20;99.90
56426;DHT22;42330;43.620;3.856;2022-08-04T01:40:13;25.10;99.90
56426;DHT22;42330;43.620;3.856;2022-08-04T01:42:38;25.10;99.90
56426;DHT22;42330;43.620;3.856;2022-08-04T01:45:07;25.00;99.90
56426;DHT22;42330;43.620;3.856;2022-08-04T01:47:35;25.00;99.90
56426;DHT22;42330;43.620;3.856;2022-08-04T01:50:06;25.00;99.90
56426;DHT22;42330;43.620;3.856;2022-08-04T01:52:34;25.10;99.90
56426;DHT22;42330;43.620;3.856;2022-08-04T01:55:03;25.10;99.90
56426;DHT22;42330;43.620;3.856;2022-08-04T01:57:31;25.10;99.90
56426;DHT22;42330;43.620;3.856;2022-08-04T01:59:58;25.00;99.90
56426;DHT22;42330;43.620;3.856;2022-08-04T02:02:24;24.90;99.90
56426;DHT22;42330;43.620;3.856;2022-08-04T02:04:50;24.90;99.90
56426;DHT22;42330;43.620;3.856;2022-08-04T02:07:19;24.90;99.90
56426;DHT22;42330;43.620;3.856;2022-08-04T02:10:03;24.80;99.90
56426;DHT22;42330;43.620;3.856;2022-08-04T02:15:35;24.90;99.90
56426;DHT22;42330;43.620;3.856;2022-08-04T02:18:04;25.00;99.90
56426;DHT22;42330;43.620;3.856;2022-08-04T02:20:34;25.00;99.90
56426;DHT22;42330;43.620;3.856;2022-08-04T02:23:23;24.90;99.90
56426;DHT22;42330;43.620;3.856;2022-08-04T02:25:57;24.90;99.90
56426;DHT22;42330;43.620;3.856;2022-08-04T02:33:29;24.90;99.90
56426;DHT22;42330;43.620;3.856;2022-08-04T02:35:59;25.00;99.90
56426;DHT22;42330;43.620;3.856;2022-08-04T02:41:04;25.00;99.90
56426;DHT22;42330;43.620;3.856;2022-08-04T02:43:31;25.00;99.90
56426;DHT22;42330;43.620;3.856;2022-08-04T02:46:01;25.00;99.90
56426;DHT22;42330;43.620;3.856;2022-08-04T02:48:28;24.80;99.90
56426;DHT22;42330;43.620;3.856;2022-08-04T02:50:57;24.70;99.90
56426;DHT22;42330;43.620;3.856;2022-08-04T02:53:24;24.70;99.90
56426;DHT22;42330;43.620;3.856;2022-08-04T02:55:51;24.70;99.90
56426;DHT22;42330;43.620;3.856;2022-08-04T02:58:19;24.70;99.90
56426;DHT22;42330;43.620;3.856;2022-08-04T03:00:45;24.70;99.90
56426;DHT22;42330;43.620;3.856;2022-08-04T03:06:43;24.70;99.90
56426;DHT22;42330;43.620;3.856;2022-08-04T03:09:20;24.80;99.90
56426;DHT22;42330;43.620;3.856;2022-08-04T03:12:18;24.80;99.90
56426;DHT22;42330;43.620;3.856;2022-08-04T03:45:49;24.70;99.90
56426;DHT22;42330;43.620;3.856;2022-08-04T03:56:28;24.70;98.80
56426;DHT22;42330;43.620;3.856;2022-08-04T03:59:41;24.70;98.50
56426;DHT22;42330;43.620;3.856;2022-08-04T04:02:30;24.80;97.80
56426;DHT22;42330;43.620;3.856;2022-08-04T04:21:36;24.80;95.90
56426;DHT22;42330;43.620;3.856;2022-08-04T04:30:06;24.80;95.60
56426;DHT22;42330;43.620;3.856;2022-08-04T04:46:22;24.50;96.50
56426;DHT22;42330;43.620;3.856;2022-08-04T04:49:03;24.40;96.80
56426;DHT22;42330;43.620;3.856;2022-08-04T04:51:43;24.50;97.10
56426;DHT22;42330;43.620;3.856;2022-08-04T04:54:27;24.40;97.20
56426;DHT22;42330;43.620;3.856;2022-08-04T04:59:31;24.30;98.20
56426;DHT22;42330;43.620;3.856;2022-08-04T05:02:19;24.40;97.30
56426;DHT22;42330;43.620;3.856;2022-08-04T05:05:17;24.40;97.50
56426;DHT22;42330;43.620;3.856;2022-08-04T05:13:53;24.40;97.70
56426;DHT22;42330;43.620;3.856;2022-08-04T05:16:38;24.40;98.30
56426;DHT22;42330;43.620;3.856;2022-08-04T05:19:17;24.40;98.40
56426;DHT22;42330;43.620;3.856;2022-08-04T05:21:48;24.50;97.80
56426;DHT22;42330;43.620;3.856;2022-08-04T05:24:18;24.40;98.00
56426;DHT22;42330;43.620;3.856;2022-08-04T05:26:49;24.40;98.10
56426;DHT22;42330;43.620;3.856;2022-08-04T05:29:33;24.40;98.00
56426;DHT22;42330;43.620;3.856;2022-08-04T05:32:04;24.30;98.50
56426;DHT22;42330;43.620;3.856;2022-08-04T05:34:38;24.30;98.80
56426;DHT22;42330;43.620;3.856;2022-08-04T05:37:08;24.20;98.90
56426;DHT22;42330;43.620;3.856;2022-08-04T05:39:56;24.30;98.90
56426;DHT22;42330;43.620;3.856;2022-08-04T05:42:23;24.30;98.30
56426;DHT22;42330;43.620;3.856;2022-08-04T05:44:50;24.30;98.60
56426;DHT22;42330;43.620;3.856;2022-08-04T05:47:16;24.20;98.80
56426;DHT22;42330;43.620;3.856;2022-08-04T05:49:43;24.30;98.40
56426;DHT22;42330;43.620;3.856;2022-08-04T05:52:09;24.40;98.00
56426;DHT22;42330;43.620;3.856;2022-08-04T05:54:37;24.30;98.10
56426;DHT22;42330;43.620;3.856;2022-08-04T05:57:06;24.20;98.60
56426;DHT22;42330;43.620;3.856;2022-08-04T05:59:36;24.20;99.10
56426;DHT22;42330;43.620;3.856;2022-08-04T06:02:03;24.30;98.70
56426;DHT22;42330;43.620;3.856;2022-08-04T06:04:41;24.30;98.20
56426;DHT22;42330;43.620;3.856;2022-08-04T06:07:07;24.40;97.40
56426;DHT22;42330;43.620;3.856;2022-08-04T06:09:33;24.40;97.50
56426;DHT22;42330;43.620;3.856;2022-08-04T06:12:00;24.50;96.70
56426;DHT22;42330;43.620;3.856;2022-08-04T06:14:32;24.60;96.50
56426;DHT22;42330;43.620;3.856;2022-08-04T06:17:04;24.50;96.40
56426;DHT22;42330;43.620;3.856;2022-08-04T06:19:30;24.60;96.30
56426;DHT22;42330;43.620;3.856;2022-08-04T06:22:02;24.50;95.70
56426;DHT22;42330;43.620;3.856;2022-08-04T06:24:30;24.40;97.00
56426;DHT22;42330;43.620;3.856;2022-08-04T06:26:56;24.50;97.00
56426;DHT22;42330;43.620;3.856;2022-08-04T06:29:24;24.60;96.20
56426;DHT22;42330;43.620;3.856;2022-08-04T06:32:09;24.50;96.20
56426;DHT22;42330;43.620;3.856;2022-08-04T06:34:39;24.50;96.50
56426;DHT22;42330;43.620;3.856;2022-08-04T06:37:06;24.70;96.10
56426;DHT22;42330;43.620;3.856;2022-08-04T06:39:33;24.60;96.10
56426;DHT22;42330;43.620;3.856;2022-08-04T06:42:01;24.70;96.50
56426;DHT22;42330;43.620;3.856;2022-08-04T06:44:28;24.80;95.90
56426;DHT22;42330;43.620;3.856;2022-08-04T06:46:55;24.90;94.40
56426;DHT22;42330;43.620;3.856;2022-08-04T06:49:22;24.90;94.00
56426;DHT22;42330;43.620;3.856;2022-08-04T06:51:49;25.00;94.40
56426;DHT22;42330;43.620;3.856;2022-08-04T06:54:16;25.00;93.80
56426;DHT22;42330;43.620;3.856;2022-08-04T06:56:42;25.00;93.80
56426;DHT22;42330;43.620;3.856;2022-08-04T06:59:10;25.00;93.30
56426;DHT22;42330;43.620;3.856;2022-08-04T07:01:36;25.10;93.30
56426;DHT22;42330;43.620;3.856;2022-08-04T07:04:04;25.00;93.40
56426;DHT22;42330;43.620;3.856;2022-08-04T07:06:30;25.00;93.00
56426;DHT22;42330;43.620;3.856;2022-08-04T07:08:57;25.10;92.80
56426;DHT22;42330;43.620;3.856;2022-08-04T07:11:24;25.20;91.80
56426;DHT22;42330;43.620;3.856;2022-08-04T07:13:50;25.30;91.00
56426;DHT22;42330;43.620;3.856;2022-08-04T07:16:18;25.40;90.80
56426;DHT22;42330;43.620;3.856;2022-08-04T07:18:45;25.40;90.70
56426;DHT22;42330;43.620;3.856;2022-08-04T07:21:19;25.40;90.50
56426;DHT22;42330;43.620;3.856;2022-08-04T07:23:45;25.50;90.60
56426;DHT22;42330;43.620;3.856;2022-08-04T07:26:11;25.60;90.00
56426;DHT22;42330;43.620;3.856;2022-08-04T07:28:38;25.70;88.80
56426;DHT22;42330;43.620;3.856;2022-08-04T07:31:04;25.80;87.80
56426;DHT22;42330;43.620;3.856;2022-08-04T07:33:30;25.70;87.80
56426;DHT22;42330;43.620;3.856;2022-08-04T07:35:56;25.80;88.00
56426;DHT22;42330;43.620;3.856;2022-08-04T07:38:22;25.80;86.90
56426;DHT22;42330;43.620;3.856;2022-08-04T07:40:48;25.80;86.00
56426;DHT22;42330;43.620;3.856;2022-08-04T07:43:15;25.80;86.40
56426;DHT22;42330;43.620;3.856;2022-08-04T07:45:41;26.10;86.60
56426;DHT22;42330;43.620;3.856;2022-08-04T07:48:09;26.10;84.20
56426;DHT22;42330;43.620;3.856;2022-08-04T07:50:35;26.10;83.90
56426;DHT22;42330;43.620;3.856;2022-08-04T07:53:03;26.20;83.60
56426;DHT22;42330;43.620;3.856;2022-08-04T07:55:29;26.30;81.70
56426;DHT22;42330;43.620;3.856;2022-08-04T07:57:55;26.40;80.70
56426;DHT22;42330;43.620;3.856;2022-08-04T08:00:21;26.50;78.20
56426;DHT22;42330;43.620;3.856;2022-08-04T08:02:49;26.60;79.10
56426;DHT22;42330;43.620;3.856;2022-08-04T08:05:18;26.70;78.00
56426;DHT22;42330;43.620;3.856;2022-08-04T08:07:50;26.80;77.90
56426;DHT22;42330;43.620;3.856;2022-08-04T08:10:16;26.80;77.90
56426;DHT22;42330;43.620;3.856;2022-08-04T08:12:42;26.80;76.90
56426;DHT22;42330;43.620;3.856;2022-08-04T08:15:09;26.90;76.60
56426;DHT22;42330;43.620;3.856;2022-08-04T08:17:37;26.90;76.60
56426;DHT22;42330;43.620;3.856;2022-08-04T08:20:05;27.10;77.20
56426;DHT22;42330;43.620;3.856;2022-08-04T08:22:31;27.10;77.30
56426;DHT22;42330;43.620;3.856;2022-08-04T08:24:57;27.20;75.40
56426;DHT22;42330;43.620;3.856;2022-08-04T08:27:24;27.30;75.70
56426;DHT22;42330;43.620;3.856;2022-08-04T08:29:50;27.40;72.80
56426;DHT22;42330;43.620;3.856;2022-08-04T08:32:16;27.40;72.90
56426;DHT22;42330;43.620;3.856;2022-08-04T08:34:42;27.50;73.20
56426;DHT22;42330;43.620;3.856;2022-08-04T08:53:49;28.20;69.50
56426;DHT22;42330;43.620;3.856;2022-08-04T08:56:38;28.40;69.30
56426;DHT22;42330;43.620;3.856;2022-08-04T09:12:39;29.10;66.20
56426;DHT22;42330;43.620;3.856;2022-08-04T09:20:58;29.40;65.40
56426;DHT22;42330;43.620;3.856;2022-08-04T09:26:19;29.60;64.70
56426;DHT22;42330;43.620;3.856;2022-08-04T09:34:38;29.80;62.80
56426;DHT22;42330;43.620;3.856;2022-08-04T09:40:26;30.10;61.00
56426;DHT22;42330;43.620;3.856;2022-08-04T09:45:40;30.30;61.20
56426;DHT22;42330;43.620;3.856;2022-08-04T09:48:13;30.30;60.70
56426;DHT22;42330;43.620;3.856;2022-08-04T09:50:41;30.40;59.60
56426;DHT22;42330;43.620;3.856;2022-08-04T09:56:33;30.80;59.20
56426;DHT22;42330;43.620;3.856;2022-08-04T10:02:06;31.10;59.30
56426;DHT22;42330;43.620;3.856;2022-08-04T10:04:35;31.30;61.80
56426;DHT22;42330;43.620;3.856;2022-08-04T10:10:18;31.50;63.10
56426;DHT22;42330;43.620;3.856;2022-08-04T10:26:49;32.40;62.10
56426;DHT22;42330;43.620;3.856;2022-08-04T10:29:40;32.40;60.90
56426;DHT22;42330;43.620;3.856;2022-08-04T10:32:52;32.70;62.20
56426;DHT22;42330;43.620;3.856;2022-08-04T10:35:17;32.70;60.60
56426;DHT22;42330;43.620;3.856;2022-08-04T10:38:15;32.60;61.00
56426;DHT22;42330;43.620;3.856;2022-08-04T10:41:01;33.00;60.20
56426;DHT22;42330;43.620;3.856;2022-08-04T10:56:55;33.60;58.20
56426;DHT22;42330;43.620;3.856;2022-08-04T11:02:26;33.70;58.20
56426;DHT22;42330;43.620;3.856;2022-08-04T11:07:44;33.80;57.50
56426;DHT22;42330;43.620;3.856;2022-08-04T11:10:11;34.20;57.50
56426;DHT22;42330;43.620;3.856;2022-08-04T11:12:40;34.40;56.60
56426;DHT22;42330;43.620;3.856;2022-08-04T11:15:39;34.30;56.20
56426;DHT22;42330;43.620;3.856;2022-08-04T11:18:12;34.50;56.60
56426;DHT22;42330;43.620;3.856;2022-08-04T11:21:02;34.70;56.10
56426;DHT22;42330;43.620;3.856;2022-08-04T11:23:33;34.90;55.70
56426;DHT22;42330;43.620;3.856;2022-08-04T11:26:16;34.50;55.30
56426;DHT22;42330;43.620;3.856;2022-08-04T11:28:57;34.40;55.00
56426;DHT22;42330;43.620;3.856;2022-08-04T11:31:30;34.60;54.20
56426;DHT22;42330;43.620;3.856;2022-08-04T11:42:38;34.80;56.40
56426;DHT22;42330;43.620;3.856;2022-08-04T11:45:16;34.80;56.00
56426;DHT22;42330;43.620;3.856;2022-08-04T11:47:56;34.70;55.80
56426;DHT22;42330;43.620;3.856;2022-08-04T11:50:46;34.40;55.30
56426;DHT22;42330;43.620;3.856;2022-08-04T11:53:18;34.10;56.70
56426;DHT22;42330;43.620;3.856;2022-08-04T11:55:49;33.90;56.60
56426;DHT22;42330;43.620;3.856;2022-08-04T11:58:15;33.80;56.20
56426;DHT22;42330;43.620;3.856;2022-08-04T12:01:03;33.90;56.80
56426;DHT22;42330;43.620;3.856;2022-08-04T12:03:45;33.80;56.10
56426;DHT22;42330;43.620;3.856;2022-08-04T12:06:36;33.80;56.10
56426;DHT22;42330;43.620;3.856;2022-08-04T12:17:07;33.50;58.30
56426;DHT22;42330;43.620;3.856;2022-08-04T12:22:22;33.80;59.20
56426;DHT22;42330;43.620;3.856;2022-08-04T12:27:26;33.60;58.70
56426;DHT22;42330;43.620;3.856;2022-08-04T12:29:54;33.40;59.20
56426;DHT22;42330;43.620;3.856;2022-08-04T12:32:28;33.30;59.30
56426;DHT22;42330;43.620;3.856;2022-08-04T12:37:57;33.40;58.30
56426;DHT22;42330;43.620;3.856;2022-08-04T12:45:45;33.20;57.10
56426;DHT22;42330;43.620;3.856;2022-08-04T12:48:13;33.30;59.70
56426;DHT22;42330;43.620;3.856;2022-08-04T12:50:39;33.40;59.20
56426;DHT22;42330;43.620;3.856;2022-08-04T12:53:15;33.30;58.00
56426;DHT22;42330;43.620;3.856;2022-08-04T12:55:47;33.30;58.80
56426;DHT22;42330;43.620;3.856;2022-08-04T12:58:19;33.50;57.90
56426;DHT22;42330;43.620;3.856;2022-08-04T13:00:52;33.60;57.70
56426;DHT22;42330;43.620;3.856;2022-08-04T13:03:19;33.70;57.60
56426;DHT22;42330;43.620;3.856;2022-08-04T13:05:52;33.80;58.30
56426;DHT22;42330;43.620;3.856;2022-08-04T13:08:20;33.70;58.60
56426;DHT22;42330;43.620;3.856;2022-08-04T13:10:48;33.50;57.90
56426;DHT22;42330;43.620;3.856;2022-08-04T13:13:20;33.50;59.00
56426;DHT22;42330;43.620;3.856;2022-08-04T13:15:59;33.70;58.50
56426;DHT22;42330;43.620;3.856;2022-08-04T13:18:26;33.50;58.30
56426;DHT22;42330;43.620;3.856;2022-08-04T13:20:52;33.80;58.90
56426;DHT22;42330;43.620;3.856;2022-08-04T13:23:19;33.90;58.00
56426;DHT22;42330;43.620;3.856;2022-08-04T13:25:47;33.60;56.90
56426;DHT22;42330;43.620;3.856;2022-08-04T13:28:20;33.50;57.50
56426;DHT22;42330;43.620;3.856;2022-08-04T13:30:47;33.70;56.10
56426;DHT22;42330;43.620;3.856;2022-08-04T13:33:17;33.70;57.30
56426;DHT22;42330;43.620;3.856;2022-08-04T13:35:45;33.80;57.60
56426;DHT22;42330;43.620;3.856;2022-08-04T13:38:13;33.80;57.90
56426;DHT22;42330;43.620;3.856;2022-08-04T13:40:41;33.80;58.70
56426;DHT22;42330;43.620;3.856;2022-08-04T13:43:09;33.70;57.30
56426;DHT22;42330;43.620;3.856;2022-08-04T13:45:40;33.60;58.00
56426;DHT22;42330;43.620;3.856;2022-08-04T13:48:06;33.70;58.60
56426;DHT22;42330;43.620;3.856;2022-08-04T13:50:36;33.80;58.30
56426;DHT22;42330;43.620;3.856;2022-08-04T13:53:02;33.80;57.80
56426;DHT22;42330;43.620;3.856;2022-08-04T13:55:33;33.80;58.30
56426;DHT22;42330;43.620;3.856;2022-08-04T13:58:22;33.70;58.50
56426;DHT22;42330;43.620;3.856;2022-08-04T14:00:53;33.60;57.80
56426;DHT22;42330;43.620;3.856;2022-08-04T14:06:17;33.70;58.00
56426;DHT22;42330;43.620;3.856;2022-08-04T14:09:10;33.60;58.60
56426;DHT22;42330;43.620;3.856;2022-08-04T14:11:44;33.70;58.00
56426;DHT22;42330;43.620;3.856;2022-08-04T14:14:28;33.70;57.30
56426;DHT22;42330;43.620;3.856;2022-08-04T14:24:58;33.60;58.40
56426;DHT22;42330;43.620;3.856;2022-08-04T14:27:27;33.70;57.90
56426;DHT22;42330;43.620;3.856;2022-08-04T14:29:53;33.70;57.80
56426;DHT22;42330;43.620;3.856;2022-08-04T14:32:19;33.50;57.60
56426;DHT22;42330;43.620;3.856;2022-08-04T14:34:45;33.50;58.50
56426;DHT22;42330;43.620;3.856;2022-08-04T14:37:13;33.50;58.20
56426;DHT22;42330;43.620;3.856;2022-08-04T14:39:42;33.50;58.80
56426;DHT22;42330;43.620;3.856;2022-08-04T14:42:08;33.30;58.30
56426;DHT22;42330;43.620;3.856;2022-08-04T14:44:56;33.20;59.30
56426;DHT22;42330;43.620;3.856;2022-08-04T14:47:40;33.30;59.40
56426;DHT22;42330;43.620;3.856;2022-08-04T14:50:08;33.10;58.90
56426;DHT22;42330;43.620;3.856;2022-08-04T14:52:34;33.00;59.30
56426;DHT22;42330;43.620;3.856;2022-08-04T14:55:21;32.70;60.10
56426;DHT22;42330;43.620;3.856;2022-08-04T14:57:49;32.80;60.80
56426;DHT22;42330;43.620;3.856;2022-08-04T15:00:26;32.90;59.80
56426;DHT22;42330;43.620;3.856;2022-08-04T15:02:56;32.80;60.30
56426;DHT22;42330;43.620;3.856;2022-08-04T15:05:24;33.00;60.50
56426;DHT22;42330;43.620;3.856;2022-08-04T15:07:51;32.70;60.50
56426;DHT22;42330;43.620;3.856;2022-08-04T15:10:19;32.60;60.50
56426;DHT22;42330;43.620;3.856;2022-08-04T15:12:45;32.60;60.70
56426;DHT22;42330;43.620;3.856;2022-08-04T15:15:11;32.80;60.60
56426;DHT22;42330;43.620;3.856;2022-08-04T15:17:38;32.90;60.70
56426;DHT22;42330;43.620;3.856;2022-08-04T15:20:04;33.00;60.70
56426;DHT22;42330;43.620;3.856;2022-08-04T15:22:31;32.80;60.50
56426;DHT22;42330;43.620;3.856;2022-08-04T15:24:57;32.40;61.40
56426;DHT22;42330;43.620;3.856;2022-08-04T15:27:29;32.50;62.30
56426;DHT22;42330;43.620;3.856;2022-08-04T15:30:04;32.40;62.00
56426;DHT22;42330;43.620;3.856;2022-08-04T15:32:36;32.40;62.60
56426;DHT22;42330;43.620;3.856;2022-08-04T15:35:08;32.30;62.80
56426;DHT22;42330;43.620;3.856;2022-08-04T15:45:55;32.20;64.00
56426;DHT22;42330;43.620;3.856;2022-08-04T15:48:25;32.10;64.70
56426;DHT22;42330;43.620;3.856;2022-08-04T15:53:28;32.10;65.50
56426;DHT22;42330;43.620;3.856;2022-08-04T15:55:54;31.80;65.70
56426;DHT22;42330;43.620;3.856;2022-08-04T15:58:21;31.70;66.40
56426;DHT22;42330;43.620;3.856;2022-08-04T16:16:49;31.30;67.30
56426;DHT22;42330;43.620;3.856;2022-08-04T16:22:03;31.10;68.10
56426;DHT22;42330;43.620;3.856;2022-08-04T16:24:29;31.00;68.90
56426;DHT22;42330;43.620;3.856;2022-08-04T16:27:01;31.00;69.10
56426;DHT22;42330;43.620;3.856;2022-08-04T16:29:33;31.10;69.20
56426;DHT22;42330;43.620;3.856;2022-08-04T16:37:13;31.10;69.60
56426;DHT22;42330;43.620;3.856;2022-08-04T16:39:40;31.00;70.10
56426;DHT22;42330;43.620;3.856;2022-08-04T16:42:29;30.70;70.90
56426;DHT22;42330;43.620;3.856;2022-08-04T16:50:19;30.50;71.90
56426;DHT22;42330;43.620;3.856;2022-08-04T16:52:47;30.40;72.40
56426;DHT22;42330;43.620;3.856;2022-08-04T16:55:21;30.40;72.80
56426;DHT22;42330;43.620;3.856;2022-08-04T16:57:48;30.30;73.00
56426;DHT22;42330;43.620;3.856;2022-08-04T17:00:15;30.40;73.00
56426;DHT22;42330;43.620;3.856;2022-08-04T17:02:42;30.50;72.80
56426;DHT22;42330;43.620;3.856;2022-08-04T17:05:21;30.30;73.20
56426;DHT22;42330;43.620;3.856;2022-08-04T17:07:52;30.30;73.60
56426;DHT22;42330;43.620;3.856;2022-08-04T17:10:18;30.20;73.70
56426;DHT22;42330;43.620;3.856;2022-08-04T17:12:44;30.20;74.20
56426;DHT22;42330;43.620;3.856;2022-08-04T17:15:22;30.20;73.60
56426;DHT22;42330;43.620;3.856;2022-08-04T17:17:48;30.20;73.60
56426;DHT22;42330;43.620;3.856;2022-08-04T17:20:13;30.20;73.90
56426;DHT22;42330;43.620;3.856;2022-08-04T17:22:40;30.10;74.10
56426;DHT22;42330;43.620;3.856;2022-08-04T17:25:06;30.20;73.90
56426;DHT22;42330;43.620;3.856;2022-08-04T17:27:32;30.10;74.30
56426;DHT22;42330;43.620;3.856;2022-08-04T17:29:57;30.10;74.50
56426;DHT22;42330;43.620;3.856;2022-08-04T17:32:24;30.00;74.60
56426;DHT22;42330;43.620;3.856;2022-08-04T17:34:55;29.80;75.50
56426;DHT22;42330;43.620;3.856;2022-08-04T17:37:21;29.70;75.80
56426;DHT22;42330;43.620;3.856;2022-08-04T17:39:49;29.70;75.50
56426;DHT22;42330;43.620;3.856;2022-08-04T17:42:28;29.70;75.50
56426;DHT22;42330;43.620;3.856;2022-08-04T17:45:09;29.70;76.10
56426;DHT22;42330;43.620;3.856;2022-08-04T17:47:51;29.60;76.00
56426;DHT22;42330;43.620;3.856;2022-08-04T17:50:27;29.60;76.90
56426;DHT22;42330;43.620;3.856;2022-08-04T17:53:02;29.40;77.40
56426;DHT22;42330;43.620;3.856;2022-08-04T17:55:40;29.50;77.20
56426;DHT22;42330;43.620;3.856;2022-08-04T17:58:13;29.40;77.60
56426;DHT22;42330;43.620;3.856;2022-08-04T18:00:40;29.30;77.60
56426;DHT22;42330;43.620;3.856;2022-08-04T18:03:05;29.30;78.80
56426;DHT22;42330;43.620;3.856;2022-08-04T18:05:31;29.20;79.50
56426;DHT22;42330;43.620;3.856;2022-08-04T18:08:05;29.10;79.90
56426;DHT22;42330;43.620;3.856;2022-08-04T18:10:38;28.90;80.60
56426;DHT22;42330;43.620;3.856;2022-08-04T18:13:06;28.70;81.50
56426;DHT22;42330;43.620;3.856;2022-08-04T18:15:32;28.70;81.10
56426;DHT22;42330;43.620;3.856;2022-08-04T18:17:58;28.70;82.00
56426;DHT22;42330;43.620;3.856;2022-08-04T18:20:25;28.70;82.00
56426;DHT22;42330;43.620;3.856;2022-08-04T18:22:52;28.70;82.10
56426;DHT22;42330;43.620;3.856;2022-08-04T18:25:19;28.70;81.20
56426;DHT22;42330;43.620;3.856;2022-08-04T18:27:55;28.70;81.90
56426;DHT22;42330;43.620;3.856;2022-08-04T18:30:25;28.60;81.50
56426;DHT22;42330;43.620;3.856;2022-08-04T18:32:52;28.50;82.60
56426;DHT22;42330;43.620;3.856;2022-08-04T18:35:20;28.50;83.00
56426;DHT22;42330;43.620;3.856;2022-08-04T18:37:46;28.40;83.00
56426;DHT22;42330;43.620;3.856;2022-08-04T18:40:12;28.40;83.30
56426;DHT22;42330;43.620;3.856;2022-08-04T18:42:38;28.40;83.20
56426;DHT22;42330;43.620;3.856;2022-08-04T18:45:04;28.30;83.70
56426;DHT22;42330;43.620;3.856;2022-08-04T18:47:30;28.30;84.70
56426;DHT22;42330;43.620;3.856;2022-08-04T18:49:56;28.20;84.60
56426;DHT22;42330;43.620;3.856;2022-08-04T18:52:22;28.20;85.10
56426;DHT22;42330;43.620;3.856;2022-08-04T18:54:48;28.20;85.30
56426;DHT22;42330;43.620;3.856;2022-08-04T18:57:22;28.20;84.50
56426;DHT22;42330;43.620;3.856;2022-08-04T18:59:49;28.20;84.50
56426;DHT22;42330;43.620;3.856;2022-08-04T19:02:15;28.20;84.90
56426;DHT22;42330;43.620;3.856;2022-08-04T19:04:41;28.20;85.00
56426;DHT22;42330;43.620;3.856;2022-08-04T19:07:08;28.10;85.40
56426;DHT22;42330;43.620;3.856;2022-08-04T19:09:34;28.10;85.70
56426;DHT22;42330;43.620;3.856;2022-08-04T19:11:59;28.00;86.40
56426;DHT22;42330;43.620;3.856;2022-08-04T19:14:25;28.00;85.90
56426;DHT22;42330;43.620;3.856;2022-08-04T19:16:51;28.00;86.70
56426;DHT22;42330;43.620;3.856;2022-08-04T19:19:17;28.00;86.90
56426;DHT22;42330;43.620;3.856;2022-08-04T19:21:44;27.90;87.60
56426;DHT22;42330;43.620;3.856;2022-08-04T19:24:11;27.90;87.80
56426;DHT22;42330;43.620;3.856;2022-08-04T19:26:37;27.80;88.70
56426;DHT22;42330;43.620;3.856;2022-08-04T19:29:03;27.80;87.90
56426;DHT22;42330;43.620;3.856;2022-08-04T19:31:29;27.70;90.10
56426;DHT22;42330;43.620;3.856;2022-08-04T19:33:55;27.70;90.20
56426;DHT22;42330;43.620;3.856;2022-08-04T19:36:22;27.50;91.40
56426;DHT22;42330;43.620;3.856;2022-08-04T19:38:49;27.40;91.90
56426;DHT22;42330;43.620;3.856;2022-08-04T19:41:14;27.50;91.40
56426;DHT22;42330;43.620;3.856;2022-08-04T19:43:41;27.40;92.00
56426;DHT22;42330;43.620;3.856;2022-08-04T19:46:07;27.50;92.50
56426;DHT22;42330;43.620;3.856;2022-08-04T19:48:33;27.50;92.40
56426;DHT22;42330;43.620;3.856;2022-08-04T19:50:58;27.40;92.60
56426;DHT22;42330;43.620;3.856;2022-08-04T19:53:24;27.40;92.30
56426;DHT22;42330;43.620;3.856;2022-08-04T19:55:50;27.40;93.20
56426;DHT22;42330;43.620;3.856;2022-08-04T19:58:16;27.30;93.40
56426;DHT22;42330;43.620;3.856;2022-08-04T20:00:42;27.30;94.00
56426;DHT22;42330;43.620;3.856;2022-08-04T20:03:08;27.30;94.10
56426;DHT22;42330;43.620;3.856;2022-08-04T20:05:34;27.20;94.10
56426;DHT22;42330;43.620;3.856;2022-08-04T20:08:00;27.20;94.30
56426;DHT22;42330;43.620;3.856;2022-08-04T20:10:25;27.20;94.40
56426;DHT22;42330;43.620;3.856;2022-08-04T20:12:51;27.10;94.70
56426;DHT22;42330;43.620;3.856;2022-08-04T20:15:17;27.30;93.90
56426;DHT22;42330;43.620;3.856;2022-08-04T20:17:43;27.30;93.30
56426;DHT22;42330;43.620;3.856;2022-08-04T20:20:09;27.40;93.50
56426;DHT22;42330;43.620;3.856;2022-08-04T20:22:35;27.40;93.40
56426;DHT22;42330;43.620;3.856;2022-08-04T20:25:01;27.40;93.70
56426;DHT22;42330;43.620;3.856;2022-08-04T20:27:27;27.40;93.40
56426;DHT22;42330;43.620;3.856;2022-08-04T20:29:53;27.30;94.50
56426;DHT22;42330;43.620;3.856;2022-08-04T20:32:20;27.20;94.90
56426;DHT22;42330;43.620;3.856;2022-08-04T20:34:47;27.20;95.30
56426;DHT22;42330;43.620;3.856;2022-08-04T20:37:13;27.20;95.30
56426;DHT22;42330;43.620;3.856;2022-08-04T20:39:39;27.00;96.20
56426;DHT22;42330;43.620;3.856;2022-08-04T20:42:05;26.90;96.90
56426;DHT22;42330;43.620;3.856;2022-08-04T20:44:31;26.90;97.50
56426;DHT22;42330;43.620;3.856;2022-08-04T20:46:56;26.90;97.50
56426;DHT22;42330;43.620;3.856;2022-08-04T20:49:22;26.90;97.70
56426;DHT22;42330;43.620;3.856;2022-08-04T20:51:48;26.90;97.70